sensor_id;sensor_type;location;lat;lon;timestamp;P1;durP1;ratioP1;P2;durP2;ratioP2
35990;SDS011;22064;42.672;23.282;2023-09-19T00:00:38;14.43;;;7.47;;
35990;SDS011;22064;42.672;23.282;2023-09-19T00:03:07;13.68;;;7.95;;
35990;SDS011;22064;42.672;23.282;2023-09-19T00:05:36;14.48;;;7.68;;
35990;SDS011;22064;42.672;23.282;2023-09-19T00:08:03;15.70;;;8.52;;
35990;SDS011;22064;42.672;23.282;2023-09-19T00:10:30;14.85;;;7.53;;
35990;SDS011;22064;42.672;23.282;2023-09-19T00:13:00;12.85;;;7.30;;
35990;SDS011;22064;42.672;23.282;2023-09-19T00:15:48;14.98;;;7.60;;
35990;SDS011;22064;42.672;23.282;2023-09-19T00:18:14;11.70;;;7.00;;
35990;SDS011;22064;42.672;23.282;2023-09-19T00:20:44;12.70;;;7.50;;
35990;SDS011;22064;42.672;23.282;2023-09-19T00:23:13;15.33;;;7.53;;
35990;SDS011;22064;42.672;23.282;2023-09-19T00:25:39;11.57;;;7.35;;
35990;SDS011;22064;42.672;23.282;2023-09-19T00:28:05;15.13;;;7.55;;
35990;SDS011;22064;42.672;23.282;2023-09-19T00:30:35;13.52;;;7.13;;
35990;SDS011;22064;42.672;23.282;2023-09-19T00:33:04;14.15;;;7.38;;
35990;SDS011;22064;42.672;23.282;2023-09-19T00:35:33;14.27;;;7.22;;
35990;SDS011;22064;42.672;23.282;2023-09-19T00:37:59;15.82;;;7.97;;
35990;SDS011;22064;42.672;23.282;2023-09-19T00:40:25;14.60;;;7.70;;
35990;SDS011;22064;42.672;23.282;2023-09-19T00:42:51;15.13;;;8.30;;
35990;SDS011;22064;42.672;23.282;2023-09-19T00:45:22;14.18;;;7.38;;
35990;SDS011;22064;42.672;23.282;2023-09-19T00:47:49;16.08;;;7.88;;
35990;SDS011;22064;42.672;23.282;2023-09-19T00:50:21;15.18;;;7.53;;
35990;SDS011;22064;42.672;23.282;2023-09-19T00:52:50;14.02;;;7.55;;
35990;SDS011;22064;42.672;23.282;2023-09-19T00:55:22;17.23;;;8.30;;
35990;SDS011;22064;42.672;23.282;2023-09-19T00:57:50;15.63;;;8.80;;
35990;SDS011;22064;42.672;23.282;2023-09-19T01:00:16;16.20;;;8.38;;
35990;SDS011;22064;42.672;23.282;2023-09-19T01:02:45;16.03;;;8.40;;
35990;SDS011;22064;42.672;23.282;2023-09-19T01:05:12;15.13;;;7.90;;
35990;SDS011;22064;42.672;23.282;2023-09-19T01:07:38;14.48;;;7.63;;
35990;SDS011;22064;42.672;23.282;2023-09-19T01:10:08;14.40;;;7.80;;
35990;SDS011;22064;42.672;23.282;2023-09-19T01:20:29;14.15;;;7.85;;
35990;SDS011;22064;42.672;23.282;2023-09-19T01:26:01;16.83;;;8.50;;
35990;SDS011;22064;42.672;23.282;2023-09-19T01:28:51;14.65;;;8.18;;
35990;SDS011;22064;42.672;23.282;2023-09-19T01:31:19;15.55;;;8.25;;
35990;SDS011;22064;42.672;23.282;2023-09-19T01:33:59;14.23;;;7.70;;
35990;SDS011;22064;42.672;23.282;2023-09-19T01:36:27;16.48;;;8.65;;
35990;SDS011;22064;42.672;23.282;2023-09-19T01:38:54;18.38;;;8.85;;
35990;SDS011;22064;42.672;23.282;2023-09-19T01:41:27;15.13;;;8.55;;
35990;SDS011;22064;42.672;23.282;2023-09-19T01:44:04;13.75;;;7.70;;
35990;SDS011;22064;42.672;23.282;2023-09-19T01:46:37;18.08;;;8.48;;
35990;SDS011;22064;42.672;23.282;2023-09-19T01:54:48;17.83;;;8.65;;
35990;SDS011;22064;42.672;23.282;2023-09-19T02:00:15;18.13;;;9.32;;
35990;SDS011;22064;42.672;23.282;2023-09-19T02:02:46;16.13;;;9.02;;
35990;SDS011;22064;42.672;23.282;2023-09-19T02:05:13;17.15;;;9.18;;
35990;SDS011;22064;42.672;23.282;2023-09-19T02:07:48;16.95;;;8.65;;
35990;SDS011;22064;42.672;23.282;2023-09-19T02:10:14;15.77;;;8.32;;
35990;SDS011;22064;42.672;23.282;2023-09-19T02:12:40;18.10;;;8.80;;
35990;SDS011;22064;42.672;23.282;2023-09-19T02:15:06;17.40;;;9.48;;
35990;SDS011;22064;42.672;23.282;2023-09-19T02:17:32;14.77;;;8.50;;
35990;SDS011;22064;42.672;23.282;2023-09-19T02:19:58;17.35;;;8.70;;
35990;SDS011;22064;42.672;23.282;2023-09-19T02:22:26;14.32;;;8.23;;
35990;SDS011;22064;42.672;23.282;2023-09-19T02:24:53;22.50;;;12.13;;
35990;SDS011;22064;42.672;23.282;2023-09-19T02:27:19;20.05;;;11.82;;
35990;SDS011;22064;42.672;23.282;2023-09-19T02:29:45;16.80;;;9.18;;
35990;SDS011;22064;42.672;23.282;2023-09-19T02:32:11;16.25;;;8.82;;
35990;SDS011;22064;42.672;23.282;2023-09-19T02:34:37;17.38;;;8.88;;
35990;SDS011;22064;42.672;23.282;2023-09-19T02:37:07;17.25;;;9.07;;
35990;SDS011;22064;42.672;23.282;2023-09-19T02:39:35;18.80;;;9.98;;
35990;SDS011;22064;42.672;23.282;2023-09-19T02:42:02;14.93;;;7.93;;
35990;SDS011;22064;42.672;23.282;2023-09-19T02:44:29;14.98;;;8.20;;
35990;SDS011;22064;42.672;23.282;2023-09-19T02:46:55;15.75;;;8.02;;
35990;SDS011;22064;42.672;23.282;2023-09-19T02:49:23;17.05;;;9.27;;
35990;SDS011;22064;42.672;23.282;2023-09-19T02:51:49;16.38;;;8.40;;
35990;SDS011;22064;42.672;23.282;2023-09-19T02:54:14;17.35;;;7.97;;
35990;SDS011;22064;42.672;23.282;2023-09-19T02:56:41;18.55;;;8.75;;
35990;SDS011;22064;42.672;23.282;2023-09-19T02:59:07;17.40;;;8.52;;
35990;SDS011;22064;42.672;23.282;2023-09-19T03:01:36;15.23;;;8.43;;
35990;SDS011;22064;42.672;23.282;2023-09-19T03:04:04;16.95;;;9.40;;
35990;SDS011;22064;42.672;23.282;2023-09-19T03:06:34;17.52;;;8.23;;
35990;SDS011;22064;42.672;23.282;2023-09-19T03:09:00;14.68;;;8.45;;
35990;SDS011;22064;42.672;23.282;2023-09-19T03:11:28;14.68;;;8.38;;
35990;SDS011;22064;42.672;23.282;2023-09-19T03:13:56;15.23;;;8.48;;
35990;SDS011;22064;42.672;23.282;2023-09-19T03:16:23;17.38;;;8.82;;
35990;SDS011;22064;42.672;23.282;2023-09-19T03:18:53;18.60;;;9.27;;
35990;SDS011;22064;42.672;23.282;2023-09-19T03:21:21;15.85;;;8.55;;
35990;SDS011;22064;42.672;23.282;2023-09-19T03:23:47;18.05;;;9.63;;
35990;SDS011;22064;42.672;23.282;2023-09-19T03:26:13;16.25;;;8.77;;
35990;SDS011;22064;42.672;23.282;2023-09-19T03:28:42;16.63;;;9.02;;
35990;SDS011;22064;42.672;23.282;2023-09-19T03:31:09;19.58;;;9.02;;
35990;SDS011;22064;42.672;23.282;2023-09-19T03:33:36;16.70;;;9.77;;
35990;SDS011;22064;42.672;23.282;2023-09-19T03:36:04;18.00;;;9.80;;
35990;SDS011;22064;42.672;23.282;2023-09-19T03:38:30;19.33;;;9.32;;
35990;SDS011;22064;42.672;23.282;2023-09-19T03:40:57;20.33;;;9.95;;
35990;SDS011;22064;42.672;23.282;2023-09-19T03:43:23;18.38;;;9.30;;
35990;SDS011;22064;42.672;23.282;2023-09-19T03:45:48;18.25;;;9.50;;
35990;SDS011;22064;42.672;23.282;2023-09-19T03:48:17;17.38;;;9.70;;
35990;SDS011;22064;42.672;23.282;2023-09-19T03:50:43;20.60;;;10.30;;
35990;SDS011;22064;42.672;23.282;2023-09-19T03:53:09;19.08;;;9.40;;
35990;SDS011;22064;42.672;23.282;2023-09-19T03:55:35;17.42;;;9.50;;
35990;SDS011;22064;42.672;23.282;2023-09-19T03:58:02;18.52;;;9.63;;
35990;SDS011;22064;42.672;23.282;2023-09-19T04:00:28;18.65;;;10.27;;
35990;SDS011;22064;42.672;23.282;2023-09-19T04:02:55;19.23;;;9.15;;
35990;SDS011;22064;42.672;23.282;2023-09-19T04:05:24;20.92;;;10.50;;
35990;SDS011;22064;42.672;23.282;2023-09-19T04:07:50;21.95;;;9.77;;
35990;SDS011;22064;42.672;23.282;2023-09-19T04:10:16;18.52;;;9.98;;
35990;SDS011;22064;42.672;23.282;2023-09-19T04:12:52;18.13;;;9.98;;
35990;SDS011;22064;42.672;23.282;2023-09-19T04:15:19;20.58;;;9.57;;
35990;SDS011;22064;42.672;23.282;2023-09-19T04:17:48;19.10;;;9.35;;
35990;SDS011;22064;42.672;23.282;2023-09-19T04:20:15;19.38;;;9.70;;
35990;SDS011;22064;42.672;23.282;2023-09-19T04:22:43;17.70;;;10.05;;
35990;SDS011;22064;42.672;23.282;2023-09-19T04:25:09;20.38;;;10.88;;
35990;SDS011;22064;42.672;23.282;2023-09-19T04:27:35;15.48;;;9.30;;
35990;SDS011;22064;42.672;23.282;2023-09-19T04:30:01;18.02;;;10.27;;
35990;SDS011;22064;42.672;23.282;2023-09-19T04:32:29;18.88;;;9.52;;
35990;SDS011;22064;42.672;23.282;2023-09-19T04:34:57;19.48;;;9.73;;
35990;SDS011;22064;42.672;23.282;2023-09-19T04:37:25;20.33;;;8.93;;
35990;SDS011;22064;42.672;23.282;2023-09-19T04:39:51;25.65;;;10.02;;
35990;SDS011;22064;42.672;23.282;2023-09-19T04:42:18;21.25;;;10.52;;
35990;SDS011;22064;42.672;23.282;2023-09-19T04:44:44;21.08;;;10.52;;
35990;SDS011;22064;42.672;23.282;2023-09-19T04:47:10;21.42;;;9.63;;
35990;SDS011;22064;42.672;23.282;2023-09-19T04:49:37;16.83;;;8.43;;
35990;SDS011;22064;42.672;23.282;2023-09-19T04:52:05;20.27;;;9.98;;
35990;SDS011;22064;42.672;23.282;2023-09-19T04:54:31;18.80;;;9.55;;
35990;SDS011;22064;42.672;23.282;2023-09-19T04:56:59;23.20;;;10.45;;
35990;SDS011;22064;42.672;23.282;2023-09-19T04:59:25;19.48;;;9.68;;
35990;SDS011;22064;42.672;23.282;2023-09-19T05:01:51;22.65;;;9.85;;
35990;SDS011;22064;42.672;23.282;2023-09-19T05:04:17;21.70;;;9.77;;
35990;SDS011;22064;42.672;23.282;2023-09-19T05:06:43;17.95;;;9.45;;
35990;SDS011;22064;42.672;23.282;2023-09-19T05:09:09;22.92;;;10.63;;
35990;SDS011;22064;42.672;23.282;2023-09-19T05:11:35;18.85;;;9.65;;
35990;SDS011;22064;42.672;23.282;2023-09-19T05:14:03;18.88;;;9.82;;
35990;SDS011;22064;42.672;23.282;2023-09-19T05:16:29;15.60;;;9.55;;
35990;SDS011;22064;42.672;23.282;2023-09-19T05:18:59;17.02;;;9.10;;
35990;SDS011;22064;42.672;23.282;2023-09-19T05:21:26;17.80;;;8.10;;
35990;SDS011;22064;42.672;23.282;2023-09-19T05:23:54;13.85;;;7.82;;
35990;SDS011;22064;42.672;23.282;2023-09-19T05:26:21;17.20;;;8.25;;
35990;SDS011;22064;42.672;23.282;2023-09-19T05:28:47;16.05;;;8.57;;
35990;SDS011;22064;42.672;23.282;2023-09-19T05:31:13;17.23;;;9.30;;
35990;SDS011;22064;42.672;23.282;2023-09-19T05:33:40;18.33;;;8.80;;
35990;SDS011;22064;42.672;23.282;2023-09-19T05:36:06;16.92;;;8.25;;
35990;SDS011;22064;42.672;23.282;2023-09-19T05:38:37;13.40;;;7.63;;
35990;SDS011;22064;42.672;23.282;2023-09-19T05:41:06;13.70;;;7.03;;
35990;SDS011;22064;42.672;23.282;2023-09-19T05:43:33;17.20;;;8.90;;
35990;SDS011;22064;42.672;23.282;2023-09-19T05:46:00;18.40;;;8.90;;
35990;SDS011;22064;42.672;23.282;2023-09-19T05:48:26;18.27;;;8.50;;
35990;SDS011;22064;42.672;23.282;2023-09-19T05:50:51;18.55;;;9.45;;
35990;SDS011;22064;42.672;23.282;2023-09-19T05:53:17;14.75;;;8.45;;
35990;SDS011;22064;42.672;23.282;2023-09-19T05:55:43;20.75;;;8.93;;
35990;SDS011;22064;42.672;23.282;2023-09-19T05:58:11;24.08;;;9.57;;
35990;SDS011;22064;42.672;23.282;2023-09-19T06:00:39;18.55;;;9.38;;
35990;SDS011;22064;42.672;23.282;2023-09-19T06:03:07;18.17;;;8.43;;
35990;SDS011;22064;42.672;23.282;2023-09-19T06:05:33;15.05;;;7.45;;
35990;SDS011;22064;42.672;23.282;2023-09-19T06:07:59;17.02;;;8.52;;
35990;SDS011;22064;42.672;23.282;2023-09-19T06:10:26;16.20;;;7.47;;
35990;SDS011;22064;42.672;23.282;2023-09-19T06:12:53;15.18;;;7.32;;
35990;SDS011;22064;42.672;23.282;2023-09-19T06:15:20;12.13;;;6.47;;
35990;SDS011;22064;42.672;23.282;2023-09-19T06:17:49;13.90;;;6.93;;
35990;SDS011;22064;42.672;23.282;2023-09-19T06:20:16;16.17;;;6.90;;
35990;SDS011;22064;42.672;23.282;2023-09-19T06:22:43;13.05;;;7.10;;
35990;SDS011;22064;42.672;23.282;2023-09-19T06:25:10;14.27;;;7.05;;
35990;SDS011;22064;42.672;23.282;2023-09-19T06:27:38;15.88;;;7.30;;
35990;SDS011;22064;42.672;23.282;2023-09-19T06:30:09;13.30;;;7.10;;
35990;SDS011;22064;42.672;23.282;2023-09-19T06:32:45;16.23;;;6.57;;
35990;SDS011;22064;42.672;23.282;2023-09-19T06:35:12;13.32;;;7.43;;
35990;SDS011;22064;42.672;23.282;2023-09-19T06:37:39;16.20;;;7.05;;
35990;SDS011;22064;42.672;23.282;2023-09-19T06:40:09;17.42;;;6.85;;
35990;SDS011;22064;42.672;23.282;2023-09-19T06:42:43;15.40;;;7.07;;
35990;SDS011;22064;42.672;23.282;2023-09-19T06:45:11;12.90;;;6.90;;
35990;SDS011;22064;42.672;23.282;2023-09-19T06:47:47;18.25;;;6.97;;
35990;SDS011;22064;42.672;23.282;2023-09-19T06:50:17;11.80;;;6.72;;
35990;SDS011;22064;42.672;23.282;2023-09-19T06:52:45;14.30;;;7.47;;
35990;SDS011;22064;42.672;23.282;2023-09-19T06:55:13;13.82;;;7.18;;
35990;SDS011;22064;42.672;23.282;2023-09-19T06:57:44;14.13;;;6.97;;
35990;SDS011;22064;42.672;23.282;2023-09-19T07:02:44;13.73;;;7.32;;
35990;SDS011;22064;42.672;23.282;2023-09-19T07:05:10;15.55;;;7.10;;
35990;SDS011;22064;42.672;23.282;2023-09-19T07:07:37;13.95;;;7.03;;
35990;SDS011;22064;42.672;23.282;2023-09-19T07:10:03;15.60;;;7.32;;
35990;SDS011;22064;42.672;23.282;2023-09-19T07:12:33;15.93;;;7.05;;
35990;SDS011;22064;42.672;23.282;2023-09-19T07:14:59;11.65;;;6.47;;
35990;SDS011;22064;42.672;23.282;2023-09-19T07:17:25;12.50;;;6.85;;
35990;SDS011;22064;42.672;23.282;2023-09-19T07:19:51;10.38;;;6.22;;
35990;SDS011;22064;42.672;23.282;2023-09-19T07:22:17;11.80;;;6.30;;
35990;SDS011;22064;42.672;23.282;2023-09-19T07:24:43;12.38;;;6.57;;
35990;SDS011;22064;42.672;23.282;2023-09-19T07:27:08;13.68;;;6.88;;
35990;SDS011;22064;42.672;23.282;2023-09-19T07:29:34;13.90;;;6.45;;
35990;SDS011;22064;42.672;23.282;2023-09-19T07:32:00;12.20;;;5.90;;
35990;SDS011;22064;42.672;23.282;2023-09-19T07:34:26;12.98;;;6.70;;
35990;SDS011;22064;42.672;23.282;2023-09-19T07:36:52;13.93;;;6.47;;
35990;SDS011;22064;42.672;23.282;2023-09-19T07:39:18;11.38;;;6.22;;
35990;SDS011;22064;42.672;23.282;2023-09-19T07:41:44;11.85;;;6.53;;
35990;SDS011;22064;42.672;23.282;2023-09-19T07:44:09;13.52;;;6.85;;
35990;SDS011;22064;42.672;23.282;2023-09-19T07:46:35;14.90;;;7.13;;
35990;SDS011;22064;42.672;23.282;2023-09-19T07:49:01;17.20;;;6.70;;
35990;SDS011;22064;42.672;23.282;2023-09-19T07:51:27;14.45;;;6.43;;
35990;SDS011;22064;42.672;23.282;2023-09-19T07:53:53;15.52;;;7.20;;
35990;SDS011;22064;42.672;23.282;2023-09-19T07:56:20;13.52;;;6.80;;
35990;SDS011;22064;42.672;23.282;2023-09-19T07:58:46;13.02;;;6.35;;
35990;SDS011;22064;42.672;23.282;2023-09-19T08:01:12;12.52;;;6.20;;
35990;SDS011;22064;42.672;23.282;2023-09-19T08:03:39;11.85;;;6.60;;
35990;SDS011;22064;42.672;23.282;2023-09-19T08:06:09;13.98;;;6.53;;
35990;SDS011;22064;42.672;23.282;2023-09-19T08:08:36;13.93;;;6.80;;
35990;SDS011;22064;42.672;23.282;2023-09-19T08:11:03;16.35;;;6.65;;
35990;SDS011;22064;42.672;23.282;2023-09-19T08:13:38;14.50;;;6.35;;
35990;SDS011;22064;42.672;23.282;2023-09-19T08:16:09;15.48;;;6.63;;
35990;SDS011;22064;42.672;23.282;2023-09-19T08:18:36;18.05;;;6.30;;
35990;SDS011;22064;42.672;23.282;2023-09-19T08:23:33;16.35;;;6.43;;
35990;SDS011;22064;42.672;23.282;2023-09-19T08:25:59;13.27;;;6.18;;
35990;SDS011;22064;42.672;23.282;2023-09-19T08:28:32;15.02;;;6.88;;
35990;SDS011;22064;42.672;23.282;2023-09-19T08:31:02;14.32;;;6.25;;
35990;SDS011;22064;42.672;23.282;2023-09-19T08:33:32;11.48;;;6.10;;
35990;SDS011;22064;42.672;23.282;2023-09-19T08:35:59;12.52;;;6.00;;
35990;SDS011;22064;42.672;23.282;2023-09-19T08:38:25;15.82;;;6.43;;
35990;SDS011;22064;42.672;23.282;2023-09-19T08:40:58;12.80;;;6.45;;
35990;SDS011;22064;42.672;23.282;2023-09-19T08:43:25;15.95;;;7.22;;
35990;SDS011;22064;42.672;23.282;2023-09-19T08:46:05;15.63;;;7.13;;
35990;SDS011;22064;42.672;23.282;2023-09-19T08:48:49;15.40;;;6.67;;
35990;SDS011;22064;42.672;23.282;2023-09-19T08:51:26;12.65;;;6.68;;
35990;SDS011;22064;42.672;23.282;2023-09-19T08:54:08;16.73;;;6.85;;
35990;SDS011;22064;42.672;23.282;2023-09-19T08:56:38;18.90;;;7.53;;
35990;SDS011;22064;42.672;23.282;2023-09-19T08:59:08;16.83;;;7.45;;
35990;SDS011;22064;42.672;23.282;2023-09-19T09:01:35;14.60;;;7.07;;
35990;SDS011;22064;42.672;23.282;2023-09-19T09:04:02;13.77;;;7.10;;
35990;SDS011;22064;42.672;23.282;2023-09-19T09:06:28;17.30;;;7.38;;
35990;SDS011;22064;42.672;23.282;2023-09-19T09:08:55;15.48;;;6.60;;
35990;SDS011;22064;42.672;23.282;2023-09-19T09:11:21;12.30;;;6.68;;
35990;SDS011;22064;42.672;23.282;2023-09-19T09:13:50;15.77;;;6.75;;
35990;SDS011;22064;42.672;23.282;2023-09-19T09:16:16;16.30;;;7.18;;
35990;SDS011;22064;42.672;23.282;2023-09-19T09:18:44;14.38;;;7.05;;
35990;SDS011;22064;42.672;23.282;2023-09-19T09:21:11;15.45;;;7.32;;
35990;SDS011;22064;42.672;23.282;2023-09-19T09:23:40;17.27;;;6.88;;
35990;SDS011;22064;42.672;23.282;2023-09-19T09:26:06;14.90;;;6.90;;
35990;SDS011;22064;42.672;23.282;2023-09-19T09:28:33;13.77;;;7.07;;
35990;SDS011;22064;42.672;23.282;2023-09-19T09:31:01;17.00;;;7.53;;
35990;SDS011;22064;42.672;23.282;2023-09-19T09:33:35;14.70;;;6.47;;
35990;SDS011;22064;42.672;23.282;2023-09-19T09:36:02;13.25;;;6.43;;
35990;SDS011;22064;42.672;23.282;2023-09-19T09:38:30;15.95;;;6.63;;
35990;SDS011;22064;42.672;23.282;2023-09-19T09:41:09;15.05;;;7.07;;
35990;SDS011;22064;42.672;23.282;2023-09-19T09:43:40;13.93;;;6.40;;
35990;SDS011;22064;42.672;23.282;2023-09-19T09:46:15;16.77;;;6.70;;
35990;SDS011;22064;42.672;23.282;2023-09-19T09:54:16;13.05;;;6.57;;
35990;SDS011;22064;42.672;23.282;2023-09-19T10:02:14;13.27;;;6.97;;
35990;SDS011;22064;42.672;23.282;2023-09-19T10:04:45;13.18;;;6.47;;
35990;SDS011;22064;42.672;23.282;2023-09-19T10:07:29;11.43;;;6.43;;
35990;SDS011;22064;42.672;23.282;2023-09-19T10:12:45;21.73;;;6.63;;
35990;SDS011;22064;42.672;23.282;2023-09-19T10:15:14;16.33;;;7.47;;
35990;SDS011;22064;42.672;23.282;2023-09-19T10:17:45;11.70;;;6.13;;
35990;SDS011;22064;42.672;23.282;2023-09-19T10:23:01;15.30;;;6.85;;
35990;SDS011;22064;42.672;23.282;2023-09-19T10:25:36;13.23;;;6.55;;
35990;SDS011;22064;42.672;23.282;2023-09-19T10:28:06;12.95;;;6.53;;
35990;SDS011;22064;42.672;23.282;2023-09-19T10:30:37;13.88;;;6.55;;
35990;SDS011;22064;42.672;23.282;2023-09-19T10:33:09;11.45;;;6.65;;
35990;SDS011;22064;42.672;23.282;2023-09-19T10:35:37;14.45;;;6.20;;
35990;SDS011;22064;42.672;23.282;2023-09-19T10:38:09;12.35;;;6.15;;
35990;SDS011;22064;42.672;23.282;2023-09-19T10:40:37;15.77;;;6.53;;
35990;SDS011;22064;42.672;23.282;2023-09-19T10:43:11;9.88;;;6.05;;
35990;SDS011;22064;42.672;23.282;2023-09-19T10:45:43;11.38;;;6.25;;
35990;SDS011;22064;42.672;23.282;2023-09-19T10:48:12;14.30;;;6.75;;
35990;SDS011;22064;42.672;23.282;2023-09-19T10:51:22;12.23;;;7.00;;
35990;SDS011;22064;42.672;23.282;2023-09-19T10:56:18;10.45;;;5.95;;
35990;SDS011;22064;42.672;23.282;2023-09-19T10:58:47;13.52;;;6.20;;
35990;SDS011;22064;42.672;23.282;2023-09-19T11:01:15;13.02;;;6.43;;
35990;SDS011;22064;42.672;23.282;2023-09-19T11:03:42;13.70;;;5.70;;
35990;SDS011;22064;42.672;23.282;2023-09-19T11:06:10;10.73;;;6.45;;
35990;SDS011;22064;42.672;23.282;2023-09-19T11:30:32;11.70;;;6.50;;
35990;SDS011;22064;42.672;23.282;2023-09-19T11:39:01;13.88;;;6.57;;
35990;SDS011;22064;42.672;23.282;2023-09-19T11:41:37;9.98;;;5.68;;
35990;SDS011;22064;42.672;23.282;2023-09-19T11:49:16;13.73;;;5.55;;
35990;SDS011;22064;42.672;23.282;2023-09-19T11:51:47;13.07;;;6.20;;
35990;SDS011;22064;42.672;23.282;2023-09-19T11:54:16;13.20;;;6.35;;
35990;SDS011;22064;42.672;23.282;2023-09-19T11:56:54;9.73;;;5.78;;
35990;SDS011;22064;42.672;23.282;2023-09-19T11:59:20;12.27;;;6.53;;
35990;SDS011;22064;42.672;23.282;2023-09-19T12:01:54;12.80;;;6.05;;
35990;SDS011;22064;42.672;23.282;2023-09-19T12:07:07;16.88;;;6.53;;
35990;SDS011;22064;42.672;23.282;2023-09-19T12:10:23;10.45;;;5.80;;
35990;SDS011;22064;42.672;23.282;2023-09-19T12:12:30;15.38;;;6.13;;
35990;SDS011;22064;42.672;23.282;2023-09-19T12:14:58;14.05;;;6.18;;
35990;SDS011;22064;42.672;23.282;2023-09-19T12:17:46;12.65;;;6.40;;
35990;SDS011;22064;42.672;23.282;2023-09-19T12:22:45;11.25;;;5.75;;
35990;SDS011;22064;42.672;23.282;2023-09-19T12:25:13;11.13;;;5.70;;
35990;SDS011;22064;42.672;23.282;2023-09-19T12:27:45;12.38;;;6.90;;
35990;SDS011;22064;42.672;23.282;2023-09-19T12:30:18;10.13;;;6.05;;
35990;SDS011;22064;42.672;23.282;2023-09-19T12:32:46;10.88;;;5.80;;
35990;SDS011;22064;42.672;23.282;2023-09-19T12:35:28;11.02;;;6.28;;
35990;SDS011;22064;42.672;23.282;2023-09-19T12:37:56;9.57;;;5.80;;
35990;SDS011;22064;42.672;23.282;2023-09-19T12:40:22;10.82;;;6.03;;
35990;SDS011;22064;42.672;23.282;2023-09-19T12:42:53;14.07;;;6.07;;
35990;SDS011;22064;42.672;23.282;2023-09-19T12:45:30;12.18;;;6.20;;
35990;SDS011;22064;42.672;23.282;2023-09-19T12:51:07;10.50;;;5.80;;
35990;SDS011;22064;42.672;23.282;2023-09-19T12:53:45;11.90;;;5.90;;
35990;SDS011;22064;42.672;23.282;2023-09-19T12:56:14;11.10;;;6.30;;
35990;SDS011;22064;42.672;23.282;2023-09-19T12:58:58;12.98;;;5.55;;
35990;SDS011;22064;42.672;23.282;2023-09-19T13:01:28;11.15;;;5.53;;
35990;SDS011;22064;42.672;23.282;2023-09-19T13:04:14;11.65;;;5.72;;
35990;SDS011;22064;42.672;23.282;2023-09-19T13:06:43;11.23;;;6.37;;
35990;SDS011;22064;42.672;23.282;2023-09-19T13:09:11;9.95;;;5.57;;
35990;SDS011;22064;42.672;23.282;2023-09-19T13:11:38;9.35;;;5.45;;
35990;SDS011;22064;42.672;23.282;2023-09-19T13:14:16;11.18;;;5.53;;
35990;SDS011;22064;42.672;23.282;2023-09-19T13:16:59;9.38;;;4.82;;
35990;SDS011;22064;42.672;23.282;2023-09-19T13:19:49;10.63;;;5.50;;
35990;SDS011;22064;42.672;23.282;2023-09-19T13:25:17;13.02;;;5.47;;
35990;SDS011;22064;42.672;23.282;2023-09-19T13:27:44;11.27;;;5.80;;
35990;SDS011;22064;42.672;23.282;2023-09-19T13:30:17;9.65;;;5.60;;
35990;SDS011;22064;42.672;23.282;2023-09-19T13:32:44;9.65;;;5.07;;
35990;SDS011;22064;42.672;23.282;2023-09-19T13:35:10;9.57;;;5.30;;
35990;SDS011;22064;42.672;23.282;2023-09-19T13:37:40;10.18;;;5.68;;
35990;SDS011;22064;42.672;23.282;2023-09-19T13:40:11;10.90;;;5.35;;
35990;SDS011;22064;42.672;23.282;2023-09-19T13:42:38;11.20;;;5.22;;
35990;SDS011;22064;42.672;23.282;2023-09-19T13:45:05;10.43;;;5.20;;
35990;SDS011;22064;42.672;23.282;2023-09-19T13:47:36;12.23;;;5.53;;
35990;SDS011;22064;42.672;23.282;2023-09-19T13:50:04;8.30;;;5.28;;
35990;SDS011;22064;42.672;23.282;2023-09-19T13:52:30;8.68;;;5.18;;
35990;SDS011;22064;42.672;23.282;2023-09-19T13:54:57;11.23;;;5.35;;
35990;SDS011;22064;42.672;23.282;2023-09-19T13:57:24;10.30;;;5.40;;
35990;SDS011;22064;42.672;23.282;2023-09-19T13:59:51;8.30;;;5.90;;
35990;SDS011;22064;42.672;23.282;2023-09-19T14:02:17;10.13;;;5.55;;
35990;SDS011;22064;42.672;23.282;2023-09-19T14:04:44;8.88;;;5.18;;
35990;SDS011;22064;42.672;23.282;2023-09-19T14:07:10;12.88;;;5.60;;
35990;SDS011;22064;42.672;23.282;2023-09-19T14:09:37;12.93;;;5.82;;
35990;SDS011;22064;42.672;23.282;2023-09-19T14:12:03;9.45;;;5.20;;
35990;SDS011;22064;42.672;23.282;2023-09-19T14:14:29;11.43;;;5.03;;
35990;SDS011;22064;42.672;23.282;2023-09-19T14:16:55;10.13;;;5.50;;
35990;SDS011;22064;42.672;23.282;2023-09-19T14:19:21;8.55;;;4.97;;
35990;SDS011;22064;42.672;23.282;2023-09-19T14:21:47;10.48;;;5.13;;
35990;SDS011;22064;42.672;23.282;2023-09-19T14:24:17;13.75;;;5.60;;
35990;SDS011;22064;42.672;23.282;2023-09-19T14:26:44;7.75;;;5.00;;
35990;SDS011;22064;42.672;23.282;2023-09-19T14:29:11;8.70;;;4.93;;
35990;SDS011;22064;42.672;23.282;2023-09-19T14:31:37;9.20;;;5.22;;
35990;SDS011;22064;42.672;23.282;2023-09-19T14:34:07;10.55;;;5.18;;
35990;SDS011;22064;42.672;23.282;2023-09-19T14:36:36;7.28;;;4.70;;
35990;SDS011;22064;42.672;23.282;2023-09-19T14:39:04;10.18;;;5.57;;
35990;SDS011;22064;42.672;23.282;2023-09-19T14:41:30;10.40;;;5.53;;
35990;SDS011;22064;42.672;23.282;2023-09-19T14:43:57;8.93;;;5.50;;
35990;SDS011;22064;42.672;23.282;2023-09-19T14:46:23;8.60;;;5.32;;
35990;SDS011;22064;42.672;23.282;2023-09-19T14:48:52;7.97;;;5.25;;
35990;SDS011;22064;42.672;23.282;2023-09-19T14:51:18;12.00;;;7.53;;
35990;SDS011;22064;42.672;23.282;2023-09-19T14:53:46;15.55;;;10.55;;
35990;SDS011;22064;42.672;23.282;2023-09-19T14:56:12;10.73;;;5.95;;
35990;SDS011;22064;42.672;23.282;2023-09-19T14:58:43;11.50;;;6.65;;
35990;SDS011;22064;42.672;23.282;2023-09-19T15:01:11;12.48;;;5.85;;
35990;SDS011;22064;42.672;23.282;2023-09-19T15:03:39;13.02;;;6.57;;
35990;SDS011;22064;42.672;23.282;2023-09-19T15:06:07;11.40;;;6.53;;
35990;SDS011;22064;42.672;23.282;2023-09-19T15:08:35;17.55;;;7.00;;
35990;SDS011;22064;42.672;23.282;2023-09-19T15:11:04;11.77;;;7.00;;
35990;SDS011;22064;42.672;23.282;2023-09-19T15:13:31;12.95;;;7.40;;
35990;SDS011;22064;42.672;23.282;2023-09-19T15:15:58;14.13;;;8.55;;
35990;SDS011;22064;42.672;23.282;2023-09-19T15:18:35;15.75;;;9.77;;
35990;SDS011;22064;42.672;23.282;2023-09-19T15:21:06;20.50;;;11.65;;
35990;SDS011;22064;42.672;23.282;2023-09-19T15:23:33;21.48;;;11.95;;
35990;SDS011;22064;42.672;23.282;2023-09-19T15:26:03;20.00;;;10.30;;
35990;SDS011;22064;42.672;23.282;2023-09-19T15:28:30;17.00;;;9.73;;
35990;SDS011;22064;42.672;23.282;2023-09-19T15:30:58;17.13;;;9.82;;
35990;SDS011;22064;42.672;23.282;2023-09-19T15:33:29;17.38;;;9.40;;
35990;SDS011;22064;42.672;23.282;2023-09-19T15:36:03;15.68;;;9.48;;
35990;SDS011;22064;42.672;23.282;2023-09-19T15:41:22;19.48;;;9.45;;
35990;SDS011;22064;42.672;23.282;2023-09-19T15:43:49;16.58;;;9.05;;
35990;SDS011;22064;42.672;23.282;2023-09-19T15:46:15;16.40;;;8.52;;
35990;SDS011;22064;42.672;23.282;2023-09-19T15:48:44;17.25;;;8.55;;
35990;SDS011;22064;42.672;23.282;2023-09-19T15:51:11;14.82;;;8.00;;
35990;SDS011;22064;42.672;23.282;2023-09-19T15:53:47;18.77;;;7.82;;
35990;SDS011;22064;42.672;23.282;2023-09-19T15:56:14;11.38;;;6.70;;
35990;SDS011;22064;42.672;23.282;2023-09-19T15:58:45;15.13;;;6.68;;
35990;SDS011;22064;42.672;23.282;2023-09-19T16:01:11;19.02;;;8.05;;